KBPT/BPT METAR and TAF weather

Enter ICAO airport designator
Station Type Date Time Source
KBPT METAR 2018/10/16 20:53 UTC NOAA

KBPT 162053Z 03012KT 10SM OVC009 18/15 A3003 RMK AO2 SLP168 60000 T01830150 56014


Station Type Date Time Source
KBPT Decoded METAR 2018/10/16 20:53 UTC NOAA

SOUTHEAST TEXAS RGNL AIRPORT, TX, United States (KBPT) 29-95N 094-08W 5M
Oct 16, 2018 - 04:53 PM EDT / 2018.10.16 2053 UTC
Wind: from the NNE (030 degrees) at 14 MPH (12 KT):0
Visibility: 10 mile(s):0
Sky conditions: overcast
Temperature: 64.9 F (18.3 C)
Dew Point: 59.0 F (15.0 C)
Relative Humidity: 81%
Pressure (altimeter): 30.03 in. Hg (1016 hPa)
Pressure tendency: 0.04 inches (1.4 hPa) lower than three hours ago
ob: KBPT 162053Z 03012KT 10SM OVC009 18/15 A3003 RMK AO2 SLP168 60000 T01830150 56014
cycle: 21

Station Type Date Time Source
KBPT TAF 2018/10/16 18:28 UTC NOAA

TAF KBPT 161726Z 1618/1718 02010KT P6SM VCSH OVC007
FM170300 02012KT P6SM OVC007
FM171500 03011KT P6SM BKN007 OVC010


Example: see airport list